Aeroporto :
LOGIN :

Iscrizione | Disclaimer

   EN    FR    IT 

 










Sommario :    VFR   VFR Marginale   IFR   IFR Intensivo   IFR Molto Intensivo
Visibilità : 
Base nubi : 
>= 8 km
>= 3000ft
5 / 8 km
1000 / 3000 ft
1500m / 5 km
500 / 1000 ft
800 / 1500m
200 / 500 ft
< 800m
< 200 ft
Simboli :   Temporali  Nebbia  Neve Forte  Precipitazioni Forti  Vento > 20 kt
SIGMETs :   Varie  Temporali  Ghiacco  Turbolenza  Onda orograficha  Ceneri Vulcaniche






- Altitudine del aeroporto : 1046 ft
- Codice IATA : FDE


ENBL - Bringeland

ULTIMO METAR :
  • 151820Z 01004KT 9999 FEW015 BKN026 00/M01 Q0983

METARs OBSOLETI :
  • 151750Z 35003KT 8000 -SHSN SCT015 BKN025 00/M00 Q0983
  • 151720Z 32003KT 8000 -SHSN FEW009 SCT015 BKN025 00/M00 Q0983
  • 151650Z 24002KT 3000 -SHSN VV014 01/M00 Q0983
  • 151620Z 23004KT 3500 -SHSNRA VV015 01/M01 Q0982
  • 151550Z 19006KT 9999 7000W -SHSN FEW025 SCT033 BKN043 02/M02 Q0982

TAF N/A



MetMap, La meteo Aeronautica in un colpo d'occhio ! - Copyright ORBIFLY Dicembre 2007 - Disclaimer

ORBIFLY MET'MAP TEAM :

Programmazione e sviluppo : Alexandra Zaïnal
Concezione : Baudouin d'Aumeries
Aiuto per la programmazione : Marc-Olivier Méhu
Supporto tecnico e logistico : Manuel Goepfert
Aiuto per la traduzione : Arnaldo La Scala

Contatto : metmap@orbifly.com




FONTI E CREDITI :

   NOAA